sensor_id;sensor_type;location;lat;lon;timestamp;P1;durP1;ratioP1;P2;durP2;ratioP2
21095;SDS011;10706;49.036;12.112;2022-08-05T00:01:41;5.97;;;2.63;;
21095;SDS011;10706;49.036;12.112;2022-08-05T00:04:07;9.13;;;2.95;;
21095;SDS011;10706;49.036;12.112;2022-08-05T00:06:32;7.82;;;2.55;;
21095;SDS011;10706;49.036;12.112;2022-08-05T00:09:02;7.10;;;2.67;;
21095;SDS011;10706;49.036;12.112;2022-08-05T00:11:28;8.55;;;2.72;;
21095;SDS011;10706;49.036;12.112;2022-08-05T00:13:54;8.10;;;3.25;;
21095;SDS011;10706;49.036;12.112;2022-08-05T00:16:20;7.22;;;3.63;;
21095;SDS011;10706;49.036;12.112;2022-08-05T00:18:47;7.75;;;2.75;;
21095;SDS011;10706;49.036;12.112;2022-08-05T00:21:14;10.15;;;2.72;;
21095;SDS011;10706;49.036;12.112;2022-08-05T00:23:43;5.68;;;2.75;;
21095;SDS011;10706;49.036;12.112;2022-08-05T00:26:11;8.65;;;3.05;;
21095;SDS011;10706;49.036;12.112;2022-08-05T00:28:38;9.55;;;3.05;;
21095;SDS011;10706;49.036;12.112;2022-08-05T00:31:05;6.35;;;2.70;;
21095;SDS011;10706;49.036;12.112;2022-08-05T00:33:32;8.90;;;3.10;;
21095;SDS011;10706;49.036;12.112;2022-08-05T00:35:58;10.05;;;3.58;;
21095;SDS011;10706;49.036;12.112;2022-08-05T00:38:24;7.75;;;2.95;;
21095;SDS011;10706;49.036;12.112;2022-08-05T00:40:52;10.90;;;3.15;;
21095;SDS011;10706;49.036;12.112;2022-08-05T00:43:20;11.32;;;3.70;;
21095;SDS011;10706;49.036;12.112;2022-08-05T00:45:46;6.78;;;2.63;;
21095;SDS011;10706;49.036;12.112;2022-08-05T00:48:13;6.25;;;2.80;;
21095;SDS011;10706;49.036;12.112;2022-08-05T00:50:46;8.10;;;3.15;;
21095;SDS011;10706;49.036;12.112;2022-08-05T00:53:15;6.95;;;3.03;;
21095;SDS011;10706;49.036;12.112;2022-08-05T00:55:44;9.57;;;3.13;;
21095;SDS011;10706;49.036;12.112;2022-08-05T00:58:10;10.43;;;3.00;;
21095;SDS011;10706;49.036;12.112;2022-08-05T01:00:38;6.40;;;2.60;;
21095;SDS011;10706;49.036;12.112;2022-08-05T01:03:04;8.63;;;3.15;;
21095;SDS011;10706;49.036;12.112;2022-08-05T01:05:31;10.30;;;3.08;;
21095;SDS011;10706;49.036;12.112;2022-08-05T01:07:56;8.55;;;2.90;;
21095;SDS011;10706;49.036;12.112;2022-08-05T01:10:26;11.93;;;3.60;;
21095;SDS011;10706;49.036;12.112;2022-08-05T01:13:03;9.23;;;2.88;;
21095;SDS011;10706;49.036;12.112;2022-08-05T01:15:41;10.90;;;3.42;;
21095;SDS011;10706;49.036;12.112;2022-08-05T01:18:19;7.95;;;3.17;;
21095;SDS011;10706;49.036;12.112;2022-08-05T01:24:33;13.23;;;3.25;;
21095;SDS011;10706;49.036;12.112;2022-08-05T01:30:35;10.57;;;3.42;;
21095;SDS011;10706;49.036;12.112;2022-08-05T01:33:07;11.27;;;3.30;;
21095;SDS011;10706;49.036;12.112;2022-08-05T01:35:35;9.57;;;3.50;;
21095;SDS011;10706;49.036;12.112;2022-08-05T01:38:04;9.65;;;3.13;;
21095;SDS011;10706;49.036;12.112;2022-08-05T01:40:31;8.98;;;3.30;;
21095;SDS011;10706;49.036;12.112;2022-08-05T01:42:58;6.47;;;2.97;;
21095;SDS011;10706;49.036;12.112;2022-08-05T01:45:28;11.18;;;3.38;;
21095;SDS011;10706;49.036;12.112;2022-08-05T01:47:55;10.65;;;3.40;;
21095;SDS011;10706;49.036;12.112;2022-08-05T01:50:25;7.75;;;3.35;;
21095;SDS011;10706;49.036;12.112;2022-08-05T01:52:59;11.52;;;3.63;;
21095;SDS011;10706;49.036;12.112;2022-08-05T01:55:28;8.23;;;3.70;;
21095;SDS011;10706;49.036;12.112;2022-08-05T01:57:57;8.27;;;3.30;;
21095;SDS011;10706;49.036;12.112;2022-08-05T02:00:26;8.82;;;3.28;;
21095;SDS011;10706;49.036;12.112;2022-08-05T02:02:54;9.98;;;3.45;;
21095;SDS011;10706;49.036;12.112;2022-08-05T02:05:24;6.75;;;3.05;;
21095;SDS011;10706;49.036;12.112;2022-08-05T02:07:56;8.50;;;3.20;;
21095;SDS011;10706;49.036;12.112;2022-08-05T02:10:23;7.65;;;3.55;;
21095;SDS011;10706;49.036;12.112;2022-08-05T02:12:53;9.05;;;3.40;;
21095;SDS011;10706;49.036;12.112;2022-08-05T02:15:27;7.30;;;3.50;;
21095;SDS011;10706;49.036;12.112;2022-08-05T02:18:06;6.53;;;2.95;;
21095;SDS011;10706;49.036;12.112;2022-08-05T02:20:41;7.13;;;3.33;;
21095;SDS011;10706;49.036;12.112;2022-08-05T02:23:19;12.50;;;3.78;;
21095;SDS011;10706;49.036;12.112;2022-08-05T02:25:50;8.50;;;3.55;;
21095;SDS011;10706;49.036;12.112;2022-08-05T02:28:25;8.23;;;3.40;;
21095;SDS011;10706;49.036;12.112;2022-08-05T02:31:00;8.43;;;3.40;;
21095;SDS011;10706;49.036;12.112;2022-08-05T02:33:31;7.53;;;3.45;;
21095;SDS011;10706;49.036;12.112;2022-08-05T02:36:04;9.82;;;3.22;;
21095;SDS011;10706;49.036;12.112;2022-08-05T02:38:34;6.13;;;3.08;;
21095;SDS011;10706;49.036;12.112;2022-08-05T02:41:02;7.47;;;3.60;;
21095;SDS011;10706;49.036;12.112;2022-08-05T02:43:29;11.20;;;3.55;;
21095;SDS011;10706;49.036;12.112;2022-08-05T02:45:57;12.43;;;3.00;;
21095;SDS011;10706;49.036;12.112;2022-08-05T02:48:25;7.82;;;3.75;;
21095;SDS011;10706;49.036;12.112;2022-08-05T02:50:52;8.10;;;3.78;;
21095;SDS011;10706;49.036;12.112;2022-08-05T02:53:18;9.25;;;3.58;;
21095;SDS011;10706;49.036;12.112;2022-08-05T02:55:49;11.02;;;3.72;;
21095;SDS011;10706;49.036;12.112;2022-08-05T02:58:17;8.75;;;3.90;;
21095;SDS011;10706;49.036;12.112;2022-08-05T03:00:46;10.02;;;3.80;;
21095;SDS011;10706;49.036;12.112;2022-08-05T03:03:15;10.52;;;4.15;;
21095;SDS011;10706;49.036;12.112;2022-08-05T03:05:44;11.90;;;3.95;;
21095;SDS011;10706;49.036;12.112;2022-08-05T03:08:12;7.30;;;3.63;;
21095;SDS011;10706;49.036;12.112;2022-08-05T03:10:42;7.93;;;3.72;;
21095;SDS011;10706;49.036;12.112;2022-08-05T03:13:16;6.75;;;3.53;;
21095;SDS011;10706;49.036;12.112;2022-08-05T03:15:42;10.05;;;4.13;;
21095;SDS011;10706;49.036;12.112;2022-08-05T03:18:09;7.20;;;3.35;;
21095;SDS011;10706;49.036;12.112;2022-08-05T03:20:35;9.30;;;3.95;;
21095;SDS011;10706;49.036;12.112;2022-08-05T03:23:03;10.23;;;4.00;;
21095;SDS011;10706;49.036;12.112;2022-08-05T03:25:31;7.10;;;4.13;;
21095;SDS011;10706;49.036;12.112;2022-08-05T03:27:59;11.70;;;3.88;;
21095;SDS011;10706;49.036;12.112;2022-08-05T03:30:29;7.95;;;3.83;;
21095;SDS011;10706;49.036;12.112;2022-08-05T03:33:02;11.13;;;3.67;;
21095;SDS011;10706;49.036;12.112;2022-08-05T03:35:29;10.52;;;3.95;;
21095;SDS011;10706;49.036;12.112;2022-08-05T03:37:57;5.80;;;3.50;;
21095;SDS011;10706;49.036;12.112;2022-08-05T03:40:23;14.00;;;4.00;;
21095;SDS011;10706;49.036;12.112;2022-08-05T03:42:49;6.80;;;3.60;;
21095;SDS011;10706;49.036;12.112;2022-08-05T03:45:15;10.52;;;3.80;;
21095;SDS011;10706;49.036;12.112;2022-08-05T03:47:41;11.40;;;4.07;;
21095;SDS011;10706;49.036;12.112;2022-08-05T03:50:07;9.40;;;3.85;;
21095;SDS011;10706;49.036;12.112;2022-08-05T03:52:34;8.20;;;3.55;;
21095;SDS011;10706;49.036;12.112;2022-08-05T03:55:16;9.65;;;4.00;;
21095;SDS011;10706;49.036;12.112;2022-08-05T03:57:56;7.70;;;3.88;;
21095;SDS011;10706;49.036;12.112;2022-08-05T04:00:24;8.60;;;3.92;;
21095;SDS011;10706;49.036;12.112;2022-08-05T04:02:55;9.30;;;3.92;;
21095;SDS011;10706;49.036;12.112;2022-08-05T04:05:28;11.25;;;4.13;;
21095;SDS011;10706;49.036;12.112;2022-08-05T04:07:58;12.25;;;4.03;;
21095;SDS011;10706;49.036;12.112;2022-08-05T04:10:28;13.68;;;4.18;;
21095;SDS011;10706;49.036;12.112;2022-08-05T04:12:55;9.30;;;3.63;;
21095;SDS011;10706;49.036;12.112;2022-08-05T04:15:21;12.40;;;3.67;;
21095;SDS011;10706;49.036;12.112;2022-08-05T04:17:47;10.88;;;4.35;;
21095;SDS011;10706;49.036;12.112;2022-08-05T04:20:19;8.75;;;4.15;;
21095;SDS011;10706;49.036;12.112;2022-08-05T04:22:47;11.43;;;4.00;;
21095;SDS011;10706;49.036;12.112;2022-08-05T04:25:13;9.88;;;3.75;;
21095;SDS011;10706;49.036;12.112;2022-08-05T04:27:39;8.85;;;3.80;;
21095;SDS011;10706;49.036;12.112;2022-08-05T04:30:06;10.23;;;4.00;;
21095;SDS011;10706;49.036;12.112;2022-08-05T04:32:33;8.30;;;4.07;;
21095;SDS011;10706;49.036;12.112;2022-08-05T04:34:59;11.90;;;4.20;;
21095;SDS011;10706;49.036;12.112;2022-08-05T04:37:25;8.73;;;3.78;;
21095;SDS011;10706;49.036;12.112;2022-08-05T04:39:51;11.35;;;4.40;;
21095;SDS011;10706;49.036;12.112;2022-08-05T04:42:16;9.02;;;3.92;;
21095;SDS011;10706;49.036;12.112;2022-08-05T04:44:42;10.02;;;3.78;;
21095;SDS011;10706;49.036;12.112;2022-08-05T04:47:08;9.68;;;4.07;;
21095;SDS011;10706;49.036;12.112;2022-08-05T04:49:33;10.07;;;4.00;;
21095;SDS011;10706;49.036;12.112;2022-08-05T04:51:59;12.70;;;4.18;;
21095;SDS011;10706;49.036;12.112;2022-08-05T04:54:25;10.90;;;4.05;;
21095;SDS011;10706;49.036;12.112;2022-08-05T04:56:54;10.02;;;4.32;;
21095;SDS011;10706;49.036;12.112;2022-08-05T04:59:20;7.70;;;3.78;;
21095;SDS011;10706;49.036;12.112;2022-08-05T05:01:47;11.23;;;3.97;;
21095;SDS011;10706;49.036;12.112;2022-08-05T05:04:14;8.45;;;3.78;;
21095;SDS011;10706;49.036;12.112;2022-08-05T05:06:40;10.95;;;4.88;;
21095;SDS011;10706;49.036;12.112;2022-08-05T05:09:06;8.38;;;3.80;;
21095;SDS011;10706;49.036;12.112;2022-08-05T05:11:32;9.20;;;4.20;;
21095;SDS011;10706;49.036;12.112;2022-08-05T05:13:58;13.43;;;4.15;;
21095;SDS011;10706;49.036;12.112;2022-08-05T05:16:23;12.50;;;4.20;;
21095;SDS011;10706;49.036;12.112;2022-08-05T05:18:49;9.02;;;3.95;;
21095;SDS011;10706;49.036;12.112;2022-08-05T05:21:15;13.98;;;4.30;;
21095;SDS011;10706;49.036;12.112;2022-08-05T05:23:40;11.20;;;4.45;;
21095;SDS011;10706;49.036;12.112;2022-08-05T05:26:06;9.55;;;4.20;;
21095;SDS011;10706;49.036;12.112;2022-08-05T05:28:32;16.52;;;4.68;;
21095;SDS011;10706;49.036;12.112;2022-08-05T05:30:58;13.15;;;4.53;;
21095;SDS011;10706;49.036;12.112;2022-08-05T05:33:23;23.08;;;4.60;;
21095;SDS011;10706;49.036;12.112;2022-08-05T05:35:49;15.85;;;4.40;;
21095;SDS011;10706;49.036;12.112;2022-08-05T05:38:16;17.23;;;4.25;;
21095;SDS011;10706;49.036;12.112;2022-08-05T05:40:41;14.65;;;4.35;;
21095;SDS011;10706;49.036;12.112;2022-08-05T05:43:08;14.15;;;4.55;;
21095;SDS011;10706;49.036;12.112;2022-08-05T05:45:33;22.10;;;4.55;;
21095;SDS011;10706;49.036;12.112;2022-08-05T05:47:59;11.80;;;4.20;;
21095;SDS011;10706;49.036;12.112;2022-08-05T05:50:26;13.02;;;4.70;;
21095;SDS011;10706;49.036;12.112;2022-08-05T05:52:51;9.75;;;3.80;;
21095;SDS011;10706;49.036;12.112;2022-08-05T05:55:18;16.17;;;4.50;;
21095;SDS011;10706;49.036;12.112;2022-08-05T05:57:44;10.45;;;4.25;;
21095;SDS011;10706;49.036;12.112;2022-08-05T06:00:12;11.02;;;4.40;;
21095;SDS011;10706;49.036;12.112;2022-08-05T06:02:41;9.00;;;3.80;;
21095;SDS011;10706;49.036;12.112;2022-08-05T06:05:09;10.30;;;4.10;;
21095;SDS011;10706;49.036;12.112;2022-08-05T06:07:36;11.13;;;4.30;;
21095;SDS011;10706;49.036;12.112;2022-08-05T06:10:04;9.57;;;3.92;;
21095;SDS011;10706;49.036;12.112;2022-08-05T06:12:31;9.35;;;3.72;;
21095;SDS011;10706;49.036;12.112;2022-08-05T06:14:59;8.45;;;3.70;;
21095;SDS011;10706;49.036;12.112;2022-08-05T06:17:26;10.98;;;4.65;;
21095;SDS011;10706;49.036;12.112;2022-08-05T06:19:52;7.25;;;3.90;;
21095;SDS011;10706;49.036;12.112;2022-08-05T06:22:21;12.80;;;4.43;;
21095;SDS011;10706;49.036;12.112;2022-08-05T06:24:52;12.88;;;3.85;;
21095;SDS011;10706;49.036;12.112;2022-08-05T06:27:18;16.63;;;3.95;;
21095;SDS011;10706;49.036;12.112;2022-08-05T06:29:43;14.40;;;4.03;;
21095;SDS011;10706;49.036;12.112;2022-08-05T06:32:09;10.70;;;4.07;;
21095;SDS011;10706;49.036;12.112;2022-08-05T06:34:36;11.35;;;4.45;;
21095;SDS011;10706;49.036;12.112;2022-08-05T06:37:02;14.10;;;4.53;;
21095;SDS011;10706;49.036;12.112;2022-08-05T06:39:28;13.07;;;3.85;;
21095;SDS011;10706;49.036;12.112;2022-08-05T06:41:55;10.60;;;4.05;;
21095;SDS011;10706;49.036;12.112;2022-08-05T06:44:22;7.40;;;3.67;;
21095;SDS011;10706;49.036;12.112;2022-08-05T06:46:47;10.30;;;3.58;;
21095;SDS011;10706;49.036;12.112;2022-08-05T06:49:13;8.60;;;3.75;;
21095;SDS011;10706;49.036;12.112;2022-08-05T06:51:39;13.73;;;4.00;;
21095;SDS011;10706;49.036;12.112;2022-08-05T06:54:05;14.60;;;4.30;;
21095;SDS011;10706;49.036;12.112;2022-08-05T06:56:31;7.72;;;3.67;;
21095;SDS011;10706;49.036;12.112;2022-08-05T06:59:00;12.43;;;3.67;;
21095;SDS011;10706;49.036;12.112;2022-08-05T07:01:28;11.40;;;3.72;;
21095;SDS011;10706;49.036;12.112;2022-08-05T07:03:54;8.02;;;3.60;;
21095;SDS011;10706;49.036;12.112;2022-08-05T07:06:20;13.23;;;4.00;;
21095;SDS011;10706;49.036;12.112;2022-08-05T07:08:47;8.68;;;3.80;;
21095;SDS011;10706;49.036;12.112;2022-08-05T07:11:13;13.10;;;4.25;;
21095;SDS011;10706;49.036;12.112;2022-08-05T07:13:39;15.68;;;3.88;;
21095;SDS011;10706;49.036;12.112;2022-08-05T07:16:24;16.88;;;4.15;;
21095;SDS011;10706;49.036;12.112;2022-08-05T07:19:08;9.00;;;4.30;;
21095;SDS011;10706;49.036;12.112;2022-08-05T07:21:34;11.82;;;4.07;;
21095;SDS011;10706;49.036;12.112;2022-08-05T07:24:00;15.30;;;4.03;;
21095;SDS011;10706;49.036;12.112;2022-08-05T07:26:25;13.30;;;4.63;;
21095;SDS011;10706;49.036;12.112;2022-08-05T07:28:54;7.45;;;3.47;;
21095;SDS011;10706;49.036;12.112;2022-08-05T07:31:23;12.23;;;4.40;;
21095;SDS011;10706;49.036;12.112;2022-08-05T07:33:49;9.00;;;3.80;;
21095;SDS011;10706;49.036;12.112;2022-08-05T07:36:15;10.32;;;3.88;;
21095;SDS011;10706;49.036;12.112;2022-08-05T07:38:41;9.57;;;4.15;;
21095;SDS011;10706;49.036;12.112;2022-08-05T07:41:08;8.15;;;3.45;;
21095;SDS011;10706;49.036;12.112;2022-08-05T07:43:38;9.73;;;3.75;;
21095;SDS011;10706;49.036;12.112;2022-08-05T07:46:04;12.10;;;3.97;;
21095;SDS011;10706;49.036;12.112;2022-08-05T07:48:30;13.88;;;4.40;;
21095;SDS011;10706;49.036;12.112;2022-08-05T07:50:56;13.88;;;3.83;;
21095;SDS011;10706;49.036;12.112;2022-08-05T07:53:21;9.23;;;3.67;;
21095;SDS011;10706;49.036;12.112;2022-08-05T07:55:47;10.70;;;3.60;;
21095;SDS011;10706;49.036;12.112;2022-08-05T07:58:13;13.77;;;3.95;;
21095;SDS011;10706;49.036;12.112;2022-08-05T08:00:40;9.75;;;3.72;;
21095;SDS011;10706;49.036;12.112;2022-08-05T08:03:10;13.10;;;4.40;;
21095;SDS011;10706;49.036;12.112;2022-08-05T08:05:38;8.77;;;3.45;;
21095;SDS011;10706;49.036;12.112;2022-08-05T08:08:10;8.85;;;3.83;;
21095;SDS011;10706;49.036;12.112;2022-08-05T08:10:37;8.15;;;3.88;;
21095;SDS011;10706;49.036;12.112;2022-08-05T08:13:06;13.20;;;4.65;;
21095;SDS011;10706;49.036;12.112;2022-08-05T08:15:33;8.45;;;3.60;;
21095;SDS011;10706;49.036;12.112;2022-08-05T08:17:59;11.07;;;4.15;;
21095;SDS011;10706;49.036;12.112;2022-08-05T08:20:27;7.13;;;3.50;;
21095;SDS011;10706;49.036;12.112;2022-08-05T08:22:54;7.25;;;3.70;;
21095;SDS011;10706;49.036;12.112;2022-08-05T08:25:23;15.50;;;4.20;;
21095;SDS011;10706;49.036;12.112;2022-08-05T08:27:52;10.23;;;3.72;;
21095;SDS011;10706;49.036;12.112;2022-08-05T08:30:18;7.85;;;3.55;;
21095;SDS011;10706;49.036;12.112;2022-08-05T08:32:44;9.63;;;3.78;;
21095;SDS011;10706;49.036;12.112;2022-08-05T08:35:10;10.63;;;3.70;;
21095;SDS011;10706;49.036;12.112;2022-08-05T08:37:36;7.60;;;3.90;;
21095;SDS011;10706;49.036;12.112;2022-08-05T08:40:02;8.30;;;3.75;;
21095;SDS011;10706;49.036;12.112;2022-08-05T08:42:29;10.45;;;4.35;;
21095;SDS011;10706;49.036;12.112;2022-08-05T08:44:56;8.68;;;3.72;;
21095;SDS011;10706;49.036;12.112;2022-08-05T08:47:23;8.10;;;3.90;;
21095;SDS011;10706;49.036;12.112;2022-08-05T08:49:52;7.30;;;3.60;;
21095;SDS011;10706;49.036;12.112;2022-08-05T08:52:24;7.10;;;3.50;;
21095;SDS011;10706;49.036;12.112;2022-08-05T08:54:54;7.70;;;3.15;;
21095;SDS011;10706;49.036;12.112;2022-08-05T08:57:21;5.63;;;2.60;;
21095;SDS011;10706;49.036;12.112;2022-08-05T08:59:48;6.60;;;3.00;;
21095;SDS011;10706;49.036;12.112;2022-08-05T09:02:14;9.15;;;2.58;;
21095;SDS011;10706;49.036;12.112;2022-08-05T09:04:43;7.07;;;2.50;;
21095;SDS011;10706;49.036;12.112;2022-08-05T09:07:10;5.45;;;2.58;;
21095;SDS011;10706;49.036;12.112;2022-08-05T09:09:36;9.18;;;3.03;;
21095;SDS011;10706;49.036;12.112;2022-08-05T09:12:04;8.40;;;3.20;;
21095;SDS011;10706;49.036;12.112;2022-08-05T09:14:36;4.88;;;2.72;;
21095;SDS011;10706;49.036;12.112;2022-08-05T09:17:04;13.93;;;2.97;;
21095;SDS011;10706;49.036;12.112;2022-08-05T09:19:32;7.70;;;2.80;;
21095;SDS011;10706;49.036;12.112;2022-08-05T09:21:59;6.25;;;2.75;;
21095;SDS011;10706;49.036;12.112;2022-08-05T09:24:25;7.50;;;2.88;;
21095;SDS011;10706;49.036;12.112;2022-08-05T09:26:51;6.47;;;2.65;;
21095;SDS011;10706;49.036;12.112;2022-08-05T09:29:22;5.95;;;2.80;;
21095;SDS011;10706;49.036;12.112;2022-08-05T09:32:09;5.38;;;2.67;;
21095;SDS011;10706;49.036;12.112;2022-08-05T09:34:46;12.65;;;2.92;;
21095;SDS011;10706;49.036;12.112;2022-08-05T09:37:23;9.65;;;3.67;;
21095;SDS011;10706;49.036;12.112;2022-08-05T09:45:55;11.15;;;3.67;;
21095;SDS011;10706;49.036;12.112;2022-08-05T09:48:23;6.93;;;2.92;;
21095;SDS011;10706;49.036;12.112;2022-08-05T09:50:55;11.13;;;3.10;;
21095;SDS011;10706;49.036;12.112;2022-08-05T09:53:26;6.43;;;2.80;;
21095;SDS011;10706;49.036;12.112;2022-08-05T09:55:55;10.25;;;3.42;;
21095;SDS011;10706;49.036;12.112;2022-08-05T09:58:23;9.43;;;3.40;;
21095;SDS011;10706;49.036;12.112;2022-08-05T10:00:51;6.85;;;3.03;;
21095;SDS011;10706;49.036;12.112;2022-08-05T10:03:26;8.02;;;2.80;;
21095;SDS011;10706;49.036;12.112;2022-08-05T10:06:03;6.93;;;3.15;;
21095;SDS011;10706;49.036;12.112;2022-08-05T10:08:34;7.35;;;2.70;;
21095;SDS011;10706;49.036;12.112;2022-08-05T10:11:12;7.05;;;2.40;;
21095;SDS011;10706;49.036;12.112;2022-08-05T10:13:40;4.85;;;2.67;;
21095;SDS011;10706;49.036;12.112;2022-08-05T10:18:53;6.85;;;2.30;;
21095;SDS011;10706;49.036;12.112;2022-08-05T10:21:19;5.63;;;2.40;;
21095;SDS011;10706;49.036;12.112;2022-08-05T10:23:45;4.38;;;2.28;;
21095;SDS011;10706;49.036;12.112;2022-08-05T10:26:11;7.38;;;2.22;;
21095;SDS011;10706;49.036;12.112;2022-08-05T10:28:37;4.32;;;2.13;;
21095;SDS011;10706;49.036;12.112;2022-08-05T10:31:04;5.25;;;2.10;;
21095;SDS011;10706;49.036;12.112;2022-08-05T10:33:31;5.22;;;2.00;;
21095;SDS011;10706;49.036;12.112;2022-08-05T10:35:59;7.25;;;2.20;;
21095;SDS011;10706;49.036;12.112;2022-08-05T10:38:30;5.50;;;2.00;;
21095;SDS011;10706;49.036;12.112;2022-08-05T10:44:04;4.55;;;1.90;;
21095;SDS011;10706;49.036;12.112;2022-08-05T10:46:46;4.32;;;2.15;;
21095;SDS011;10706;49.036;12.112;2022-08-05T10:49:20;4.57;;;2.15;;
21095;SDS011;10706;49.036;12.112;2022-08-05T10:51:49;5.55;;;2.10;;
21095;SDS011;10706;49.036;12.112;2022-08-05T10:54:24;4.43;;;2.30;;
21095;SDS011;10706;49.036;12.112;2022-08-05T10:57:27;6.82;;;2.08;;
21095;SDS011;10706;49.036;12.112;2022-08-05T11:00:06;5.53;;;2.00;;
21095;SDS011;10706;49.036;12.112;2022-08-05T11:02:36;5.03;;;2.17;;
21095;SDS011;10706;49.036;12.112;2022-08-05T11:05:07;5.00;;;1.65;;
21095;SDS011;10706;49.036;12.112;2022-08-05T11:07:34;5.22;;;2.00;;
21095;SDS011;10706;49.036;12.112;2022-08-05T11:10:29;2.70;;;1.75;;
21095;SDS011;10706;49.036;12.112;2022-08-05T11:12:57;3.40;;;1.80;;
21095;SDS011;10706;49.036;12.112;2022-08-05T11:24:10;3.92;;;1.80;;
21095;SDS011;10706;49.036;12.112;2022-08-05T11:28:46;5.80;;;2.25;;
21095;SDS011;10706;49.036;12.112;2022-08-05T11:31:18;3.15;;;1.67;;
21095;SDS011;10706;49.036;12.112;2022-08-05T11:36:13;2.60;;;1.70;;
21095;SDS011;10706;49.036;12.112;2022-08-05T11:41:21;6.63;;;2.17;;
21095;SDS011;10706;49.036;12.112;2022-08-05T11:43:58;6.53;;;2.20;;
21095;SDS011;10706;49.036;12.112;2022-08-05T11:46:35;4.55;;;1.92;;
21095;SDS011;10706;49.036;12.112;2022-08-05T11:49:19;3.35;;;1.75;;
21095;SDS011;10706;49.036;12.112;2022-08-05T11:51:47;6.18;;;2.40;;
21095;SDS011;10706;49.036;12.112;2022-08-05T11:56:53;3.55;;;1.90;;
21095;SDS011;10706;49.036;12.112;2022-08-05T11:59:25;5.40;;;2.08;;
21095;SDS011;10706;49.036;12.112;2022-08-05T12:04:26;5.07;;;1.70;;
21095;SDS011;10706;49.036;12.112;2022-08-05T12:07:01;4.75;;;2.38;;
21095;SDS011;10706;49.036;12.112;2022-08-05T12:09:27;6.85;;;2.03;;
21095;SDS011;10706;49.036;12.112;2022-08-05T12:11:54;4.00;;;1.75;;
21095;SDS011;10706;49.036;12.112;2022-08-05T12:14:20;3.83;;;1.77;;
21095;SDS011;10706;49.036;12.112;2022-08-05T12:16:47;4.18;;;1.95;;
21095;SDS011;10706;49.036;12.112;2022-08-05T12:19:13;5.40;;;2.00;;
21095;SDS011;10706;49.036;12.112;2022-08-05T12:21:42;7.60;;;2.20;;
21095;SDS011;10706;49.036;12.112;2022-08-05T12:24:16;5.70;;;2.00;;
21095;SDS011;10706;49.036;12.112;2022-08-05T12:26:45;4.78;;;1.77;;
21095;SDS011;10706;49.036;12.112;2022-08-05T12:29:21;4.13;;;1.80;;
21095;SDS011;10706;49.036;12.112;2022-08-05T12:31:52;7.88;;;2.20;;
21095;SDS011;10706;49.036;12.112;2022-08-05T12:34:34;5.25;;;1.80;;
21095;SDS011;10706;49.036;12.112;2022-08-05T12:37:04;2.42;;;1.60;;
21095;SDS011;10706;49.036;12.112;2022-08-05T12:39:36;5.22;;;2.20;;
21095;SDS011;10706;49.036;12.112;2022-08-05T12:42:09;2.67;;;1.60;;
21095;SDS011;10706;49.036;12.112;2022-08-05T12:44:40;2.50;;;1.40;;
21095;SDS011;10706;49.036;12.112;2022-08-05T12:47:06;3.42;;;1.65;;
21095;SDS011;10706;49.036;12.112;2022-08-05T12:49:45;4.95;;;1.55;;
21095;SDS011;10706;49.036;12.112;2022-08-05T12:52:16;3.08;;;2.17;;
21095;SDS011;10706;49.036;12.112;2022-08-05T12:54:44;4.35;;;1.50;;
21095;SDS011;10706;49.036;12.112;2022-08-05T12:57:16;3.90;;;1.80;;
21095;SDS011;10706;49.036;12.112;2022-08-05T13:02:23;2.33;;;1.60;;
21095;SDS011;10706;49.036;12.112;2022-08-05T13:04:51;4.57;;;1.77;;
21095;SDS011;10706;49.036;12.112;2022-08-05T13:07:19;4.60;;;1.50;;
21095;SDS011;10706;49.036;12.112;2022-08-05T13:09:54;15.10;;;2.00;;
21095;SDS011;10706;49.036;12.112;2022-08-05T13:12:24;4.22;;;1.70;;
21095;SDS011;10706;49.036;12.112;2022-08-05T13:14:51;7.25;;;1.90;;
21095;SDS011;10706;49.036;12.112;2022-08-05T13:17:26;4.97;;;1.83;;
21095;SDS011;10706;49.036;12.112;2022-08-05T13:20:07;7.18;;;1.80;;
21095;SDS011;10706;49.036;12.112;2022-08-05T13:22:40;2.13;;;1.55;;
21095;SDS011;10706;49.036;12.112;2022-08-05T13:25:08;6.43;;;1.95;;
21095;SDS011;10706;49.036;12.112;2022-08-05T13:27:44;3.28;;;1.70;;
21095;SDS011;10706;49.036;12.112;2022-08-05T13:30:19;4.32;;;2.17;;
21095;SDS011;10706;49.036;12.112;2022-08-05T13:32:48;2.53;;;1.80;;
21095;SDS011;10706;49.036;12.112;2022-08-05T13:35:15;7.78;;;2.20;;
21095;SDS011;10706;49.036;12.112;2022-08-05T13:37:41;3.50;;;1.92;;
21095;SDS011;10706;49.036;12.112;2022-08-05T13:40:08;4.50;;;1.67;;
21095;SDS011;10706;49.036;12.112;2022-08-05T13:42:35;4.13;;;1.80;;
21095;SDS011;10706;49.036;12.112;2022-08-05T13:45:02;4.20;;;1.70;;
21095;SDS011;10706;49.036;12.112;2022-08-05T13:47:28;4.07;;;1.83;;
21095;SDS011;10706;49.036;12.112;2022-08-05T13:49:54;2.85;;;1.67;;
21095;SDS011;10706;49.036;12.112;2022-08-05T13:52:22;6.78;;;1.90;;
21095;SDS011;10706;49.036;12.112;2022-08-05T13:54:53;6.65;;;1.95;;
21095;SDS011;10706;49.036;12.112;2022-08-05T13:57:20;2.63;;;1.80;;
21095;SDS011;10706;49.036;12.112;2022-08-05T13:59:46;4.22;;;1.80;;
21095;SDS011;10706;49.036;12.112;2022-08-05T14:02:13;4.95;;;1.90;;
21095;SDS011;10706;49.036;12.112;2022-08-05T14:04:40;3.65;;;1.83;;
21095;SDS011;10706;49.036;12.112;2022-08-05T14:07:34;4.07;;;1.67;;
21095;SDS011;10706;49.036;12.112;2022-08-05T14:12:43;2.58;;;1.77;;
21095;SDS011;10706;49.036;12.112;2022-08-05T14:15:10;4.32;;;2.20;;
21095;SDS011;10706;49.036;12.112;2022-08-05T14:17:37;5.20;;;1.90;;
21095;SDS011;10706;49.036;12.112;2022-08-05T14:20:03;7.10;;;2.17;;
21095;SDS011;10706;49.036;12.112;2022-08-05T14:22:30;4.93;;;1.75;;
21095;SDS011;10706;49.036;12.112;2022-08-05T14:24:57;4.32;;;1.95;;
21095;SDS011;10706;49.036;12.112;2022-08-05T14:27:23;4.88;;;1.92;;
21095;SDS011;10706;49.036;12.112;2022-08-05T14:29:49;4.28;;;1.77;;
21095;SDS011;10706;49.036;12.112;2022-08-05T14:32:14;10.13;;;1.70;;
21095;SDS011;10706;49.036;12.112;2022-08-05T14:34:40;2.90;;;1.70;;
21095;SDS011;10706;49.036;12.112;2022-08-05T14:37:06;4.50;;;2.50;;
21095;SDS011;10706;49.036;12.112;2022-08-05T14:39:33;5.90;;;1.80;;
21095;SDS011;10706;49.036;12.112;2022-08-05T14:41:59;4.80;;;1.73;;
21095;SDS011;10706;49.036;12.112;2022-08-05T14:44:24;4.25;;;1.90;;
21095;SDS011;10706;49.036;12.112;2022-08-05T14:46:50;2.95;;;1.85;;
21095;SDS011;10706;49.036;12.112;2022-08-05T14:49:16;4.15;;;1.85;;
21095;SDS011;10706;49.036;12.112;2022-08-05T14:51:41;3.83;;;1.77;;
21095;SDS011;10706;49.036;12.112;2022-08-05T14:54:07;6.03;;;2.28;;
21095;SDS011;10706;49.036;12.112;2022-08-05T14:56:34;5.70;;;1.90;;
21095;SDS011;10706;49.036;12.112;2022-08-05T14:59:00;3.45;;;1.80;;
21095;SDS011;10706;49.036;12.112;2022-08-05T15:01:26;5.25;;;1.90;;
21095;SDS011;10706;49.036;12.112;2022-08-05T15:03:52;4.72;;;2.20;;
21095;SDS011;10706;49.036;12.112;2022-08-05T15:06:17;4.70;;;1.73;;
21095;SDS011;10706;49.036;12.112;2022-08-05T15:08:43;4.00;;;1.73;;
21095;SDS011;10706;49.036;12.112;2022-08-05T15:11:09;3.83;;;1.80;;
21095;SDS011;10706;49.036;12.112;2022-08-05T15:13:35;9.85;;;2.10;;
21095;SDS011;10706;49.036;12.112;2022-08-05T15:16:01;3.03;;;1.73;;
21095;SDS011;10706;49.036;12.112;2022-08-05T15:18:28;3.88;;;1.98;;
21095;SDS011;10706;49.036;12.112;2022-08-05T15:20:54;5.45;;;2.03;;
21095;SDS011;10706;49.036;12.112;2022-08-05T15:23:20;4.32;;;1.63;;
21095;SDS011;10706;49.036;12.112;2022-08-05T15:25:45;5.20;;;1.95;;